Time;durP1;ratioP1;P1;durP2;ratioP2;P2;SDS_P1;SDS_P2;PMS_P1;PMS_P2;Temp;Humidity;BMP_temperature;BMP_pressure;BME280_temperature;BME280_humidity;BME280_pressure;Samples;Min_cycle;Max_cycle;Signal;HPM_P1;HPM_P2
2021/12/18 00:01:49;;;;;;;31.15;22.45;;;9.50;99.90;;;;;;5059250;28;20352;-66
2021/12/18 00:04:14;;;;;;;31.95;22.52;;;9.40;99.90;;;;;;5076470;28;20363;-64
2021/12/18 00:06:40;;;;;;;33.33;23.23;;;9.40;99.90;;;;;;5076498;28;20046;-64
2021/12/18 00:09:08;;;;;;;30.85;22.67;;;9.30;99.90;;;;;;5076441;28;20059;-63
2021/12/18 00:11:34;;;;;;;33.40;23.55;;;9.40;99.90;;;;;;5075698;28;20056;-63
2021/12/18 00:14:00;;;;;;;32.97;22.55;;;9.50;99.90;;;;;;5075547;28;20040;-63
2021/12/18 00:16:26;;;;;;;32.63;22.33;;;9.50;99.90;;;;;;5077599;28;20024;-64
2021/12/18 00:18:54;;;;;;;29.67;21.98;;;9.50;99.90;;;;;;5079463;28;20032;-64
2021/12/18 00:21:21;;;;;;;35.00;23.52;;;9.50;99.90;;;;;;5080137;28;20021;-63
2021/12/18 00:23:47;;;;;;;31.92;23.17;;;9.40;99.90;;;;;;5080389;28;20087;-64
2021/12/18 00:26:13;;;;;;;34.85;23.17;;;9.50;99.90;;;;;;5080072;28;20036;-64
2021/12/18 00:28:39;;;;;;;35.33;23.70;;;9.40;99.90;;;;;;5080039;28;20284;-64
2021/12/18 00:31:05;;;;;;;33.63;23.15;;;9.40;99.90;;;;;;5079983;28;20044;-64
2021/12/18 00:33:31;;;;;;;34.22;23.55;;;9.30;99.90;;;;;;5078863;28;20087;-64
2021/12/18 00:35:57;;;;;;;33.38;22.95;;;9.50;99.90;;;;;;5079048;28;20033;-64
2021/12/18 00:38:28;;;;;;;33.25;23.30;;;9.50;99.90;;;;;;5079835;28;20039;-64
2021/12/18 00:43:34;;;;;;;33.58;23.02;;;9.40;99.90;;;;;;5079752;28;20044;-64
2021/12/18 00:46:00;;;;;;;35.55;23.23;;;9.40;99.90;;;;;;5062281;28;20039;-64
2021/12/18 00:48:27;;;;;;;36.00;23.77;;;9.50;99.90;;;;;;5079593;28;20067;-63
2021/12/18 00:50:53;;;;;;;35.08;24.10;;;9.30;99.90;;;;;;5079593;28;20028;-64
2021/12/18 00:53:19;;;;;;;36.95;23.60;;;9.30;99.90;;;;;;5079393;28;20040;-63
2021/12/18 00:55:46;;;;;;;34.65;23.90;;;9.30;99.90;;;;;;5078820;28;20115;-64
2021/12/18 00:58:12;;;;;;;37.40;25.17;;;9.40;99.90;;;;;;5078744;28;20415;-64
2021/12/18 01:00:41;;;;;;;34.60;24.45;;;9.40;99.90;;;;;;5062122;28;20032;-64
2021/12/18 01:03:15;;;;;;;39.20;25.13;;;9.30;99.90;;;;;;5079375;28;20036;-64
2021/12/18 01:05:42;;;;;;;39.65;25.73;;;9.20;99.90;;;;;;5079589;28;20020;-63
2021/12/18 01:08:08;;;;;;;36.58;24.55;;;9.30;99.90;;;;;;5078652;28;20295;-64
2021/12/18 01:13:09;;;;;;;37.40;24.80;;;9.20;99.90;;;;;;5078597;28;20039;-64
2021/12/18 01:15:40;;;;;;;36.33;24.40;;;9.20;99.90;;;;;;5079090;28;20039;-63
2021/12/18 01:23:35;;;;;;;38.92;25.20;;;9.10;99.90;;;;;;5079184;28;20039;-62
2021/12/18 01:26:03;;;;;;;36.90;24.55;;;9.30;99.90;;;;;;5078812;28;20423;-63
2021/12/18 01:28:29;;;;;;;35.83;23.75;;;9.30;99.90;;;;;;5077971;28;20040;-63
2021/12/18 01:30:55;;;;;;;38.60;25.10;;;9.30;99.90;;;;;;5077988;28;20471;-64
2021/12/18 01:33:21;;;;;;;37.83;24.58;;;9.20;99.90;;;;;;5061272;28;20130;-64
2021/12/18 01:35:48;;;;;;;37.55;24.65;;;9.30;99.90;;;;;;5078750;28;20171;-65
2021/12/18 01:38:14;;;;;;;41.97;24.75;;;9.20;99.90;;;;;;5078831;28;20048;-64
2021/12/18 01:40:41;;;;;;;38.75;24.75;;;9.30;99.90;;;;;;5078668;28;20033;-63
2021/12/18 01:51:21;;;;;;;35.90;23.58;;;9.40;99.90;;;;;;5079194;28;20418;-64
2021/12/18 01:53:49;;;;;;;37.00;23.75;;;9.30;99.90;;;;;;5077828;28;20044;-64
2021/12/18 01:56:15;;;;;;;37.15;24.58;;;9.20;99.90;;;;;;5078400;28;20104;-64
2021/12/18 01:58:44;;;;;;;40.33;24.20;;;9.20;99.90;;;;;;5077831;28;20107;-64
2021/12/18 02:01:10;;;;;;;37.60;23.30;;;9.20;99.90;;;;;;5078320;28;20197;-64
2021/12/18 02:03:36;;;;;;;37.97;24.25;;;9.30;99.90;;;;;;5077406;28;20222;-64
2021/12/18 02:06:01;;;;;;;38.13;23.38;;;9.30;99.90;;;;;;5077427;28;20062;-65
2021/12/18 02:08:30;;;;;;;37.45;24.13;;;9.20;99.90;;;;;;5078062;28;20033;-63
2021/12/18 02:11:08;;;;;;;40.63;23.95;;;9.10;99.90;;;;;;5078124;28;20064;-64
2021/12/18 02:21:38;;;;;;;39.42;23.77;;;9.50;99.90;;;;;;5077803;28;20403;-64
2021/12/18 02:24:05;;;;;;;38.50;24.20;;;9.50;99.90;;;;;;5077869;28;20078;-64
2021/12/18 02:26:31;;;;;;;40.42;25.05;;;9.40;99.90;;;;;;5077915;28;20127;-64
2021/12/18 02:29:00;;;;;;;36.42;23.60;;;9.40;99.90;;;;;;5076922;28;20394;-63
2021/12/18 02:31:27;;;;;;;36.40;23.10;;;9.30;99.90;;;;;;5077646;28;20191;-64
2021/12/18 02:33:53;;;;;;;40.10;24.45;;;9.30;99.90;;;;;;5076630;28;20057;-65
2021/12/18 02:36:24;;;;;;;37.53;23.48;;;9.20;99.90;;;;;;5076997;28;20044;-64
2021/12/18 02:41:38;;;;;;;36.90;22.80;;;9.40;99.90;;;;;;5076835;28;20028;-64
2021/12/18 02:44:07;;;;;;;35.08;23.67;;;9.40;99.90;;;;;;5076733;28;20296;-64
2021/12/18 02:46:33;;;;;;;39.50;24.35;;;9.40;99.90;;;;;;5077384;28;20032;-64
2021/12/18 02:49:09;;;;;;;36.97;23.67;;;9.30;99.90;;;;;;5076642;28;20117;-64
2021/12/18 02:51:36;;;;;;;38.47;23.38;;;9.30;99.90;;;;;;5077348;28;20058;-64
2021/12/18 02:54:02;;;;;;;35.47;22.63;;;9.40;99.90;;;;;;5059729;28;20040;-64
2021/12/18 02:56:28;;;;;;;37.67;22.63;;;9.30;99.90;;;;;;5076562;28;20060;-64
2021/12/18 02:59:00;;;;;;;38.20;22.65;;;9.40;99.90;;;;;;5076485;28;20155;-64
2021/12/18 03:01:27;;;;;;;35.90;21.55;;;9.50;99.90;;;;;;5077866;28;20412;-64
2021/12/18 03:03:55;;;;;;;36.80;22.60;;;9.60;99.90;;;;;;5077147;28;20044;-64
2021/12/18 03:06:38;;;;;;;31.70;18.92;;;9.60;99.90;;;;;;5076383;28;20041;-64
2021/12/18 03:27:36;;;;;;;32.35;19.35;;;9.70;99.90;;;;;;5076886;28;20039;-64
2021/12/18 03:30:04;;;;;;;31.55;19.48;;;9.60;99.90;;;;;;5076814;28;20044;-64
2021/12/18 03:32:30;;;;;;;31.17;18.23;;;9.70;99.90;;;;;;5076142;28;20139;-64
2021/12/18 03:34:56;;;;;;;30.92;18.60;;;9.60;99.90;;;;;;5075987;28;20428;-64
2021/12/18 03:37:22;;;;;;;29.67;18.25;;;9.50;99.90;;;;;;5076707;28;20121;-64
2021/12/18 03:39:48;;;;;;;31.17;18.73;;;9.50;99.90;;;;;;5075971;28;20066;-63
2021/12/18 03:42:14;;;;;;;32.05;19.42;;;9.60;99.90;;;;;;5077018;28;20081;-64
2021/12/18 03:44:41;;;;;;;33.55;19.85;;;9.70;99.90;;;;;;5076740;28;20442;-64
2021/12/18 03:47:07;;;;;;;35.85;19.05;;;9.60;99.90;;;;;;5076697;28;20041;-64
2021/12/18 03:49:33;;;;;;;30.52;18.52;;;9.60;99.90;;;;;;5076577;28;20189;-64
2021/12/18 03:51:59;;;;;;;29.95;18.63;;;9.60;99.90;;;;;;5080789;28;20056;-64
2021/12/18 03:54:25;;;;;;;29.10;17.65;;;9.60;99.90;;;;;;5080686;28;20033;-64
2021/12/18 03:56:51;;;;;;;29.08;17.30;;;9.30;99.90;;;;;;5080632;28;20038;-65
2021/12/18 03:59:18;;;;;;;26.33;16.23;;;9.30;99.90;;;;;;5079921;28;20035;-64
2021/12/18 04:01:44;;;;;;;25.67;15.70;;;9.20;99.90;;;;;;5080965;28;20038;-63
2021/12/18 04:04:10;;;;;;;26.35;15.10;;;9.20;99.90;;;;;;5079740;28;20115;-64
2021/12/18 04:06:38;;;;;;;24.90;15.23;;;9.10;99.90;;;;;;5079679;28;20025;-64
2021/12/18 04:09:04;;;;;;;28.85;16.02;;;9.00;99.90;;;;;;5079669;28;20098;-64
2021/12/18 04:11:30;;;;;;;26.60;15.75;;;9.10;99.90;;;;;;5079607;28;20024;-64
2021/12/18 04:13:56;;;;;;;27.95;16.35;;;9.00;99.90;;;;;;5080810;28;20033;-64
2021/12/18 04:16:22;;;;;;;25.73;15.23;;;8.90;99.90;;;;;;5080311;28;20296;-64
2021/12/18 04:18:48;;;;;;;27.13;16.40;;;8.80;99.90;;;;;;5079564;28;20411;-64
2021/12/18 04:21:14;;;;;;;27.25;15.55;;;8.90;99.90;;;;;;5080134;28;20078;-64
2021/12/18 04:23:40;;;;;;;30.95;16.80;;;8.80;99.90;;;;;;5079330;28;20029;-64
2021/12/18 04:26:06;;;;;;;29.38;16.35;;;8.60;99.90;;;;;;5062624;28;20150;-64
2021/12/18 04:28:32;;;;;;;27.92;16.55;;;8.70;99.90;;;;;;5062742;28;20325;-64
2021/12/18 04:30:58;;;;;;;29.05;16.38;;;8.70;99.90;;;;;;5080064;28;20404;-64
2021/12/18 04:33:23;;;;;;;27.52;15.40;;;8.60;99.90;;;;;;5079864;28;20106;-64
2021/12/18 04:35:50;;;;;;;28.65;16.13;;;8.60;99.90;;;;;;5079925;28;20112;-64
2021/12/18 04:38:16;;;;;;;31.45;17.63;;;8.60;99.90;;;;;;5079777;28;20056;-64
2021/12/18 04:40:43;;;;;;;31.80;16.42;;;8.60;99.90;;;;;;5063215;28;20032;-64
2021/12/18 04:43:09;;;;;;;29.95;15.98;;;8.50;99.90;;;;;;5079924;28;20392;-64
2021/12/18 04:45:35;;;;;;;30.90;16.73;;;8.70;99.90;;;;;;5079074;28;20104;-64
2021/12/18 04:48:01;;;;;;;29.33;16.45;;;8.80;99.90;;;;;;5078823;28;20056;-65
2021/12/18 04:50:27;;;;;;;30.20;16.88;;;8.80;99.90;;;;;;5079002;28;20060;-65
2021/12/18 04:52:53;;;;;;;29.58;16.55;;;8.80;99.90;;;;;;5078991;28;20060;-64
2021/12/18 04:55:19;;;;;;;29.60;16.52;;;8.90;99.90;;;;;;5079447;28;20033;-64
2021/12/18 04:57:45;;;;;;;30.02;16.42;;;9.00;99.90;;;;;;5079536;28;20352;-64
2021/12/18 05:00:15;;;;;;;27.10;16.30;;;9.10;99.90;;;;;;5078801;28;20043;-65
2021/12/18 05:02:43;;;;;;;28.63;16.15;;;9.20;99.90;;;;;;5077745;28;20024;-64
2021/12/18 05:05:12;;;;;;;31.67;17.10;;;9.40;99.90;;;;;;5062231;28;20028;-64
2021/12/18 05:07:38;;;;;;;30.08;15.68;;;9.30;99.90;;;;;;5078861;28;20082;-64
2021/12/18 05:10:06;;;;;;;27.52;15.43;;;9.20;99.90;;;;;;5078712;28;20087;-64
2021/12/18 05:12:32;;;;;;;28.38;15.82;;;9.20;99.90;;;;;;5078522;28;20121;-64
2021/12/18 05:14:58;;;;;;;27.75;15.63;;;9.00;99.90;;;;;;5078433;28;20498;-64
2021/12/18 05:17:24;;;;;;;28.17;15.68;;;8.90;99.90;;;;;;5079233;28;20025;-64
2021/12/18 05:19:50;;;;;;;27.25;15.52;;;8.90;99.90;;;;;;5078818;28;20106;-64
2021/12/18 05:22:16;;;;;;;27.77;15.65;;;9.00;99.90;;;;;;5078485;28;20041;-65
2021/12/18 05:24:41;;;;;;;25.98;14.57;;;9.10;99.90;;;;;;5079187;28;20037;-65
2021/12/18 05:27:10;;;;;;;24.23;14.02;;;9.00;99.90;;;;;;5078243;28;20312;-65
2021/12/18 05:29:36;;;;;;;25.02;14.45;;;9.00;99.90;;;;;;5079682;28;20054;-65
2021/12/18 05:32:02;;;;;;;27.77;15.55;;;9.00;99.90;;;;;;5078217;28;20127;-65
2021/12/18 05:34:33;;;;;;;27.77;15.55;;;9.10;99.90;;;;;;5078758;28;20110;-65
2021/12/18 05:39:28;;;;;;;30.48;15.15;;;8.90;99.90;;;;;;5078868;28;20043;-65
2021/12/18 05:41:56;;;;;;;29.05;15.00;;;8.90;99.90;;;;;;5078098;28;20029;-65
2021/12/18 05:44:24;;;;;;;25.70;13.38;;;8.90;99.90;;;;;;5078034;28;20039;-67
2021/12/18 05:46:51;;;;;;;26.15;14.45;;;8.90;99.90;;;;;;5077909;28;20028;-65
2021/12/18 05:49:18;;;;;;;25.40;13.98;;;9.00;99.90;;;;;;5077955;28;20411;-65
2021/12/18 05:51:44;;;;;;;27.05;13.77;;;8.80;99.90;;;;;;5078742;28;20119;-65
2021/12/18 05:54:11;;;;;;;26.17;14.43;;;8.80;99.90;;;;;;5078481;28;20468;-66
2021/12/18 05:56:37;;;;;;;25.08;13.52;;;8.90;99.90;;;;;;5077738;28;20025;-65
2021/12/18 05:59:04;;;;;;;25.38;13.77;;;9.00;99.90;;;;;;5078313;28;20028;-64
2021/12/18 06:01:30;;;;;;;25.77;13.65;;;9.00;99.90;;;;;;5077566;28;20025;-65
2021/12/18 06:03:56;;;;;;;22.83;12.77;;;9.00;99.90;;;;;;5078890;28;20028;-65
2021/12/18 06:06:22;;;;;;;24.65;12.93;;;9.00;99.90;;;;;;5078269;28;20036;-65
2021/12/18 06:08:50;;;;;;;22.50;12.90;;;9.00;99.90;;;;;;5077435;28;20028;-65
2021/12/18 06:11:18;;;;;;;23.55;12.95;;;9.00;99.90;;;;;;5078188;28;20308;-65
2021/12/18 06:13:52;;;;;;;25.33;13.10;;;8.90;99.90;;;;;;5076192;28;20029;-65
2021/12/18 06:16:21;;;;;;;24.50;12.98;;;9.10;99.90;;;;;;5078088;28;20021;-65
2021/12/18 06:18:50;;;;;;;28.02;13.90;;;9.10;99.90;;;;;;5078026;28;20036;-65
2021/12/18 06:21:18;;;;;;;25.85;13.75;;;9.20;99.90;;;;;;5077984;28;20345;-65
2021/12/18 06:23:50;;;;;;;24.27;13.02;;;9.30;99.90;;;;;;5077142;28;20343;-65
2021/12/18 06:26:18;;;;;;;22.30;12.25;;;9.10;99.90;;;;;;5077278;28;20039;-65
2021/12/18 06:28:44;;;;;;;23.85;12.70;;;9.00;99.90;;;;;;5076992;28;20036;-64
2021/12/18 06:31:10;;;;;;;23.10;12.23;;;9.00;99.90;;;;;;5077813;28;20063;-65
2021/12/18 06:33:36;;;;;;;21.45;11.50;;;9.10;99.90;;;;;;5076622;28;20127;-65
2021/12/18 06:36:03;;;;;;;22.88;12.50;;;9.10;99.90;;;;;;5077730;28;20120;-65
2021/12/18 06:38:28;;;;;;;24.88;12.27;;;9.10;99.90;;;;;;5077688;28;20304;-65
2021/12/18 06:40:54;;;;;;;20.70;11.13;;;9.20;99.90;;;;;;5077530;28;20033;-65
2021/12/18 06:43:20;;;;;;;19.00;11.23;;;9.00;99.90;;;;;;5076648;28;20033;-65
2021/12/18 06:45:46;;;;;;;22.17;11.90;;;8.70;99.90;;;;;;5077589;28;20032;-64
2021/12/18 06:48:12;;;;;;;21.52;12.20;;;8.60;99.90;;;;;;5043683;28;20028;-64
2021/12/18 06:50:38;;;;;;;24.77;12.80;;;8.60;99.90;;;;;;5076788;28;20047;-66
2021/12/18 06:53:05;;;;;;;26.35;13.48;;;8.70;99.90;;;;;;5077412;28;20016;-64
2021/12/18 06:55:31;;;;;;;25.20;12.88;;;8.60;99.90;;;;;;5076576;28;20379;-65
2021/12/18 06:57:57;;;;;;;22.60;12.15;;;8.60;99.90;;;;;;5076550;28;20040;-64
2021/12/18 07:00:24;;;;;;;23.40;12.30;;;8.70;99.90;;;;;;5059981;28;20043;-64
2021/12/18 07:02:51;;;;;;;25.15;12.95;;;8.70;99.90;;;;;;5076375;28;20127;-65
2021/12/18 07:05:17;;;;;;;24.70;13.15;;;8.80;99.90;;;;;;5076575;28;20127;-64
2021/12/18 07:07:42;;;;;;;24.55;12.85;;;8.90;99.90;;;;;;5076758;28;20029;-64
2021/12/18 07:10:11;;;;;;;23.25;12.85;;;8.80;99.90;;;;;;5076360;28;20090;-65
2021/12/18 07:12:37;;;;;;;26.40;13.27;;;8.80;99.90;;;;;;5076256;28;20281;-65
2021/12/18 07:15:05;;;;;;;26.95;14.10;;;8.80;99.90;;;;;;5076268;28;20055;-65
2021/12/18 07:17:31;;;;;;;25.88;13.20;;;8.90;99.90;;;;;;5076930;28;20028;-64
2021/12/18 07:19:57;;;;;;;28.58;14.30;;;9.00;99.90;;;;;;5077104;28;20412;-64
2021/12/18 07:22:22;;;;;;;28.42;14.65;;;9.10;99.90;;;;;;5076914;28;20176;-63
2021/12/18 07:24:48;;;;;;;25.60;12.98;;;9.20;99.90;;;;;;5076595;28;20028;-64
2021/12/18 07:27:14;;;;;;;27.38;13.65;;;9.00;99.90;;;;;;5076776;28;20047;-64
2021/12/18 07:29:40;;;;;;;25.77;12.50;;;9.10;99.90;;;;;;5076960;28;20037;-64
2021/12/18 07:32:06;;;;;;;27.48;13.80;;;9.10;99.90;;;;;;5077317;28;20040;-65
2021/12/18 07:34:33;;;;;;;24.65;12.50;;;9.10;99.90;;;;;;5076641;28;20060;-64
2021/12/18 07:37:00;;;;;;;27.75;13.57;;;9.00;99.90;;;;;;5075993;28;20383;-65
2021/12/18 07:39:26;;;;;;;23.90;12.60;;;9.00;99.90;;;;;;5076867;28;20040;-65
2021/12/18 07:41:52;;;;;;;24.63;12.48;;;9.20;99.90;;;;;;5077333;28;20040;-65
2021/12/18 07:44:17;;;;;;;24.38;12.70;;;9.20;99.90;;;;;;5059310;28;20048;-65
2021/12/18 07:46:43;;;;;;;26.73;12.55;;;9.20;99.90;;;;;;5075798;28;20094;-64
2021/12/18 07:49:09;;;;;;;22.80;12.10;;;9.00;99.90;;;;;;5075938;28;20399;-63
2021/12/18 07:51:36;;;;;;;26.80;13.43;;;9.00;99.90;;;;;;5076475;28;20036;-64
2021/12/18 07:54:03;;;;;;;24.65;12.73;;;9.10;99.90;;;;;;5075906;28;20301;-64
2021/12/18 07:56:33;;;;;;;26.17;12.55;;;9.20;99.90;;;;;;5075803;28;20021;-63
2021/12/18 07:59:00;;;;;;;25.30;11.55;;;9.20;99.90;;;;;;5076497;28;20032;-65
2021/12/18 08:01:26;;;;;;;26.23;13.23;;;9.10;99.90;;;;;;5077164;28;20052;-64
2021/12/18 08:03:52;;;;;;;25.67;13.20;;;9.00;99.90;;;;;;5076472;28;20033;-63
2021/12/18 08:06:20;;;;;;;24.98;12.68;;;9.00;99.90;;;;;;5075833;28;20033;-64
2021/12/18 08:08:46;;;;;;;25.33;12.93;;;9.00;99.90;;;;;;5075878;28;20040;-64
2021/12/18 08:11:12;;;;;;;26.77;12.95;;;9.10;99.90;;;;;;5075538;28;20028;-64
2021/12/18 08:13:38;;;;;;;24.75;11.85;;;9.20;99.90;;;;;;5076282;28;20150;-64
2021/12/18 08:16:04;;;;;;;25.10;12.02;;;9.10;99.90;;;;;;5058997;28;20379;-64
2021/12/18 08:18:30;;;;;;;24.40;11.95;;;9.20;99.90;;;;;;5075756;28;20146;-64
2021/12/18 08:20:56;;;;;;;24.08;12.73;;;9.20;99.90;;;;;;5075459;28;20037;-64
2021/12/18 08:23:22;;;;;;;22.67;12.20;;;9.30;99.90;;;;;;5075618;28;20035;-64
2021/12/18 08:25:48;;;;;;;22.30;10.77;;;9.30;99.90;;;;;;5075928;28;20037;-64
2021/12/18 08:28:14;;;;;;;19.40;10.40;;;9.10;99.90;;;;;;5058930;28;20038;-64
2021/12/18 08:30:40;;;;;;;22.65;10.90;;;9.00;99.90;;;;;;5076270;28;20403;-65
2021/12/18 08:33:07;;;;;;;21.88;11.23;;;9.00;99.90;;;;;;5075419;28;20072;-65
2021/12/18 08:35:34;;;;;;;21.65;10.70;;;9.00;99.90;;;;;;5075533;28;20064;-65
2021/12/18 08:38:01;;;;;;;20.88;10.77;;;9.10;99.90;;;;;;5061535;28;20055;-66
2021/12/18 08:40:30;;;;;;;21.83;10.82;;;9.20;99.90;;;;;;5079156;28;20040;-65
2021/12/18 08:42:56;;;;;;;19.63;10.02;;;9.20;99.90;;;;;;5079906;28;20300;-64
2021/12/18 08:45:23;;;;;;;18.25;9.77;;;9.20;99.90;;;;;;5079170;28;20044;-66
2021/12/18 08:47:49;;;;;;;19.05;10.00;;;9.10;99.90;;;;;;5079789;28;20325;-65
2021/12/18 08:50:17;;;;;;;18.60;9.88;;;9.10;99.90;;;;;;5079556;28;20028;-66
2021/12/18 08:52:44;;;;;;;17.58;10.27;;;9.00;99.90;;;;;;5079765;28;20032;-65
2021/12/18 08:55:11;;;;;;;17.83;9.77;;;9.10;99.90;;;;;;5079911;28;20036;-66
2021/12/18 08:57:37;;;;;;;17.70;9.63;;;9.10;99.90;;;;;;5079555;28;20033;-65
2021/12/18 09:00:09;;;;;;;17.50;9.38;;;9.20;99.90;;;;;;5079908;28;20024;-66
2021/12/18 09:02:42;;;;;;;16.65;9.57;;;9.30;99.90;;;;;;5078828;28;20033;-66
2021/12/18 09:05:09;;;;;;;20.65;10.85;;;9.40;99.90;;;;;;5079361;28;20277;-66
2021/12/18 09:07:35;;;;;;;20.02;10.48;;;9.50;99.90;;;;;;5062286;28;20407;-66
2021/12/18 09:10:02;;;;;;;20.73;10.73;;;9.40;99.90;;;;;;5080028;28;20028;-64
2021/12/18 09:12:28;;;;;;;19.88;9.45;;;9.40;99.90;;;;;;5079276;28;20032;-64
2021/12/18 09:14:53;;;;;;;15.43;9.18;;;9.50;99.90;;;;;;5078576;28;20040;-65
2021/12/18 09:17:19;;;;;;;17.45;9.27;;;9.40;99.90;;;;;;5078576;28;20036;-64
2021/12/18 09:19:45;;;;;;;16.70;9.85;;;9.40;99.90;;;;;;5078426;28;20107;-65
2021/12/18 09:22:11;;;;;;;15.73;9.77;;;9.50;99.90;;;;;;5078366;28;20051;-63
2021/12/18 09:24:38;;;;;;;16.25;8.70;;;9.60;99.90;;;;;;5079484;28;20497;-65
2021/12/18 09:27:05;;;;;;;16.42;9.60;;;9.70;99.90;;;;;;5078892;28;20086;-63
2021/12/18 09:29:31;;;;;;;16.27;8.85;;;9.70;99.90;;;;;;5062348;28;20039;-65
2021/12/18 09:31:57;;;;;;;14.40;9.02;;;9.90;99.90;;;;;;5078825;28;20408;-65
2021/12/18 09:34:26;;;;;;;16.65;9.65;;;9.90;99.90;;;;;;5078594;28;20116;-64
2021/12/18 09:36:52;;;;;;;15.75;9.63;;;9.90;99.90;;;;;;5078072;28;20326;-65
2021/12/18 09:39:18;;;;;;;15.43;9.50;;;9.80;99.90;;;;;;5078808;28;20144;-64
2021/12/18 09:41:48;;;;;;;15.38;9.00;;;9.80;99.90;;;;;;5078094;28;20103;-65
2021/12/18 09:44:14;;;;;;;16.85;9.13;;;9.80;99.90;;;;;;5078696;28;20339;-65
2021/12/18 09:46:41;;;;;;;15.60;9.23;;;9.80;99.90;;;;;;5078648;28;20304;-63
2021/12/18 09:49:07;;;;;;;15.75;8.93;;;9.70;99.90;;;;;;5061219;28;20044;-63
2021/12/18 09:51:35;;;;;;;16.75;9.20;;;9.80;99.90;;;;;;5077741;28;20047;-64
2021/12/18 09:54:01;;;;;;;14.48;7.93;;;10.00;99.90;;;;;;5078374;28;20383;-61
2021/12/18 09:56:27;;;;;;;15.48;9.55;;;10.00;99.90;;;;;;5078521;28;20039;-64
2021/12/18 09:58:53;;;;;;;15.23;8.43;;;9.80;99.90;;;;;;5078433;28;20086;-63
2021/12/18 10:01:20;;;;;;;17.13;9.82;;;9.70;99.90;;;;;;5077482;28;20024;-64
2021/12/18 10:03:49;;;;;;;17.02;9.98;;;9.70;99.90;;;;;;5077465;28;20337;-63
2021/12/18 10:06:35;;;;;;;17.67;10.43;;;9.80;99.90;;;;;;5078114;28;20033;-64
2021/12/18 10:09:07;;;;;;;17.65;10.32;;;9.80;99.90;;;;;;5078177;28;20067;-63
2021/12/18 10:11:33;;;;;;;18.53;10.57;;;10.00;99.90;;;;;;5078203;28;20060;-64
2021/12/18 10:14:02;;;;;;;17.30;9.93;;;9.90;99.90;;;;;;5077917;28;20298;-64
2021/12/18 10:16:30;;;;;;;16.35;10.02;;;9.90;99.90;;;;;;5077335;28;20020;-63
2021/12/18 10:18:58;;;;;;;17.20;10.00;;;9.80;99.90;;;;;;5077974;28;20347;-63
2021/12/18 10:21:28;;;;;;;16.08;9.77;;;9.90;99.90;;;;;;5060619;28;20120;-64
2021/12/18 10:23:55;;;;;;;16.00;9.48;;;10.00;99.90;;;;;;5078273;28;20025;-65
2021/12/18 10:26:39;;;;;;;20.70;10.25;;;9.90;99.90;;;;;;5077849;28;20028;-65
2021/12/18 10:29:34;;;;;;;17.38;9.27;;;9.90;99.90;;;;;;5077998;28;20032;-64
2021/12/18 10:32:09;;;;;;;16.35;9.40;;;10.10;99.90;;;;;;5077894;28;20025;-64
2021/12/18 10:34:36;;;;;;;17.65;9.95;;;10.20;99.90;;;;;;5077651;28;20437;-64
2021/12/18 10:37:07;;;;;;;19.63;10.95;;;10.10;99.90;;;;;;5060277;28;20021;-64
2021/12/18 10:39:38;;;;;;;18.17;10.47;;;10.00;99.90;;;;;;5060256;28;20304;-64
2021/12/18 10:42:27;;;;;;;18.52;10.50;;;10.10;99.90;;;;;;5076792;28;20292;-64
2021/12/18 10:45:05;;;;;;;19.20;10.52;;;10.10;99.90;;;;;;5077599;28;20047;-64
2021/12/18 10:47:55;;;;;;;22.20;11.75;;;10.00;99.90;;;;;;5076592;28;20055;-64
2021/12/18 10:50:38;;;;;;;19.92;10.40;;;10.10;99.90;;;;;;5077370;28;20036;-64
2021/12/18 10:53:12;;;;;;;22.30;11.88;;;10.30;99.90;;;;;;5077273;28;20055;-64
2021/12/18 10:55:40;;;;;;;19.67;11.15;;;10.40;99.90;;;;;;5077256;28;20075;-64
2021/12/18 10:58:10;;;;;;;21.75;12.05;;;10.50;99.90;;;;;;5077303;28;20105;-63
2021/12/18 11:00:52;;;;;;;22.17;12.23;;;10.40;99.90;;;;;;5076333;28;20029;-64
2021/12/18 11:03:32;;;;;;;21.90;12.55;;;10.30;99.90;;;;;;5076439;28;20335;-64
2021/12/18 11:06:13;;;;;;;21.55;12.05;;;10.20;99.90;;;;;;5076431;28;20310;-64
2021/12/18 11:09:10;;;;;;;23.40;12.20;;;10.30;99.90;;;;;;5077186;28;20107;-65
2021/12/18 11:14:21;;;;;;;24.13;13.00;;;10.30;99.90;;;;;;5077015;28;20118;-64
2021/12/18 11:16:53;;;;;;;28.88;13.88;;;10.30;99.90;;;;;;5076401;28;20064;-64
2021/12/18 11:19:22;;;;;;;32.10;15.20;;;10.30;99.90;;;;;;5077027;28;20024;-62
2021/12/18 11:21:53;;;;;;;32.17;14.60;;;10.30;99.90;;;;;;5076932;28;20558;-70
2021/12/18 11:24:21;;;;;;;30.60;14.00;;;10.50;99.90;;;;;;5077214;28;20115;-65
2021/12/18 11:26:47;;;;;;;35.65;14.23;;;10.60;99.90;;;;;;5076784;28;20032;-66
2021/12/18 11:29:27;;;;;;;35.88;14.55;;;10.50;99.90;;;;;;5075970;28;20426;-64
2021/12/18 11:31:55;;;;;;;32.45;13.50;;;10.60;99.90;;;;;;5076063;28;20284;-66
2021/12/18 11:34:21;;;;;;;32.67;13.95;;;10.50;99.90;;;;;;5076773;28;20051;-64
2021/12/18 11:36:49;;;;;;;33.05;13.68;;;10.40;99.90;;;;;;5076843;28;20017;-65
2021/12/18 11:39:18;;;;;;;28.63;13.75;;;10.30;99.90;;;;;;5076747;28;20326;-66
2021/12/18 11:41:48;;;;;;;29.45;13.07;;;10.30;99.90;;;;;;5076740;28;20114;-65
2021/12/18 11:44:42;;;;;;;24.38;11.82;;;10.40;99.90;;;;;;5076772;28;20043;-64
2021/12/18 11:47:22;;;;;;;21.65;10.80;;;10.40;99.90;;;;;;5073752;28;20297;-64
2021/12/18 11:49:49;;;;;;;22.58;10.77;;;10.50;99.90;;;;;;5076706;28;20082;-63
2021/12/18 11:52:15;;;;;;;21.98;10.75;;;10.50;99.90;;;;;;5059086;28;20025;-64
2021/12/18 11:54:45;;;;;;;24.95;11.35;;;10.60;99.90;;;;;;5076265;28;20024;-64
2021/12/18 11:57:35;;;;;;;21.83;10.32;;;10.50;99.90;;;;;;5075628;28;20024;-64
2021/12/18 12:00:03;;;;;;;22.02;9.35;;;10.60;99.90;;;;;;5076945;28;20029;-63
2021/12/18 12:02:55;;;;;;;20.55;9.77;;;10.60;99.90;;;;;;5076389;28;20036;-64
2021/12/18 12:05:55;;;;;;;25.63;10.00;;;10.60;99.90;;;;;;5076324;28;20024;-64
2021/12/18 12:08:34;;;;;;;24.30;10.20;;;10.50;99.90;;;;;;5043986;28;20371;-63
2021/12/18 12:11:16;;;;;;;19.05;9.10;;;10.50;99.90;;;;;;5077074;28;20055;-63
2021/12/18 12:13:58;;;;;;;17.48;8.32;;;10.30;99.90;;;;;;5080398;28;20299;-63
2021/12/18 12:16:43;;;;;;;15.52;8.18;;;10.20;99.90;;;;;;5079602;28;20125;-63
2021/12/18 12:19:19;;;;;;;17.15;7.93;;;10.30;99.90;;;;;;5080287;28;20025;-63
2021/12/18 12:21:55;;;;;;;15.15;7.97;;;10.20;99.90;;;;;;5079408;28;20028;-64
2021/12/18 12:24:26;;;;;;;15.38;7.53;;;10.30;99.90;;;;;;5080745;28;20036;-63
2021/12/18 12:26:53;;;;;;;12.10;6.25;;;10.10;99.90;;;;;;5080242;28;20036;-64
2021/12/18 12:29:20;;;;;;;14.60;7.35;;;10.00;99.90;;;;;;5079342;28;20073;-63
2021/12/18 12:32:06;;;;;;;13.45;6.47;;;9.70;99.90;;;;;;5079154;28;20039;-63
2021/12/18 12:34:35;;;;;;;16.85;7.18;;;9.80;99.90;;;;;;5079139;28;20300;-63
2021/12/18 12:37:23;;;;;;;17.77;7.68;;;10.00;99.90;;;;;;5079133;28;20340;-64
2021/12/18 12:39:57;;;;;;;23.95;10.02;;;10.10;99.90;;;;;;5062548;28;20056;-63
2021/12/18 12:42:24;;;;;;;29.77;11.13;;;10.10;99.90;;;;;;5079198;28;20055;-64
2021/12/18 12:45:01;;;;;;;29.77;11.50;;;10.10;99.90;;;;;;5079791;28;20029;-63
2021/12/18 12:47:29;;;;;;;30.65;11.63;;;10.30;99.90;;;;;;5062366;28;20109;-64
2021/12/18 12:50:19;;;;;;;28.38;10.82;;;10.30;99.90;;;;;;5079729;28;20070;-64
2021/12/18 12:52:55;;;;;;;32.97;11.02;;;10.30;99.90;;;;;;5078011;28;20037;-65
2021/12/18 12:55:29;;;;;;;35.90;11.38;;;10.40;99.90;;;;;;5078820;28;20020;-64
2021/12/18 12:58:01;;;;;;;25.25;10.35;;;11.30;99.90;;;;;;5078942;28;20029;-64
2021/12/18 13:00:27;;;;;;;29.38;11.68;;;11.00;99.90;;;;;;5078889;28;20025;-63
2021/12/18 13:02:54;;;;;;;25.98;10.75;;;10.60;99.90;;;;;;5078867;28;20035;-63
2021/12/18 13:05:22;;;;;;;24.95;11.23;;;10.50;99.90;;;;;;5078819;28;20103;-64
2021/12/18 13:07:59;;;;;;;27.95;11.70;;;10.30;99.90;;;;;;5078855;28;20400;-63
2021/12/18 13:10:36;;;;;;;28.67;11.40;;;10.40;99.90;;;;;;5079307;28;20029;-62
2021/12/18 13:13:07;;;;;;;29.77;11.75;;;10.30;99.90;;;;;;5078469;28;20062;-63
2021/12/18 13:16:02;;;;;;;27.20;11.10;;;10.50;99.90;;;;;;5078437;28;20078;-63
2021/12/18 13:18:35;;;;;;;22.60;9.90;;;10.30;99.90;;;;;;5075844;28;20254;-64
2021/12/18 13:21:12;;;;;;;17.15;8.43;;;10.00;99.90;;;;;;5079180;28;20299;-65
2021/12/18 13:23:38;;;;;;;16.13;8.27;;;10.00;99.90;;;;;;5061087;28;20024;-64
2021/12/18 13:26:10;;;;;;;15.50;7.15;;;10.10;99.90;;;;;;5061564;28;20036;-64
2021/12/18 13:28:49;;;;;;;13.80;6.97;;;10.30;99.90;;;;;;5061631;28;20029;-64
2021/12/18 13:31:15;;;;;;;12.40;6.32;;;10.30;99.90;;;;;;5079231;28;20269;-64
2021/12/18 13:33:41;;;;;;;12.13;6.65;;;10.10;99.90;;;;;;5061334;28;20047;-65
2021/12/18 13:36:06;;;;;;;15.13;7.50;;;10.20;99.90;;;;;;5044948;28;20028;-63
2021/12/18 13:38:45;;;;;;;11.40;6.28;;;10.50;99.90;;;;;;5078396;28;20036;-63